Aérodrome :
LOGIN :

S'inscrire | Disclaimer

   EN    FR    IT 

 










Légende :    VFR   VFR Marginal   IFR   IFR Intensif   IFR Très Intensif
Visi : 
Plafond : 
>= 8 km
>= 3000ft
5 à 8 km
1000 à 3000 ft
1500m à 5 km
500 à 1000 ft
800 à 1500m
200 à 500 ft
< 800m
< 200 ft
Symboles :   Orages  Brouillard  Fortes neiges  Fortes précipitations  Vent > 20 kt
SIGMETs :   Divers  Orages  Givrage  Turbulence  Onde Orograph.  Cendres Volcan.







- Altitude de l'aérodrome : 364 ft
- Voir les cartes d'approche


LFAQ - Albert Bray

DERNIER METAR :
  • 261700Z AUTO 34015KT CAVOK 07/01 Q1015 TEMPO VRB20G30KT 2000 TSRAGS BKN030CB

METARs EXPIRÉS :
  • 261630Z AUTO 35015KT 9999 ///TCU 09/00 Q1015 TEMPO VRB20G30KT 2000 TSRAGS BKN030CB
  • 261600Z AUTO 35015KT CAVOK 09/M01 Q1014 TEMPO VRB20G30KT 2000 TSRAGS BKN030CB
  • 261530Z AUTO 35015KT 9999 FEW030/// SCT098/// ///TCU 08/01 Q1014 TEMPO VRB20G30KT 2000 TSRAGS BKN030CB
  • 261500Z AUTO 35012KT 9999 FEW037 SCT050 BKN086 09/01 Q1014 TEMPO VRB20G30KT 2000 TSRAGS BKN030CB
  • 261430Z AUTO 03015KT 9999 FEW028 BKN036 BKN064 08/00 Q1015 TEMPO VRB20G30KT 2000 TSRAGS BKN030CB

TAF TAF LFAQ
Valide du 26 à 15h jusqu'au 27 à 00h UTC


261400Z 2615/2624 35013KT 9999 BKN040
TEMPO 2615/2618 4000 SHRA BKN030CB
PROB30
TEMPO 2615/2618 VRB20G30KT 2000 TSRAGS BKN030CB
Pas de NOTAMs connus pour ce terrain.



MET'MAP, la Météo Aéronautique d'un coup d'oeil ! - Copyright ORBIFLY Décembre 2007 - Disclaimer

ORBIFLY MET'MAP TEAM :

Programmation & Développement : Alexandra Zaïnal
Conception & Développement : Baudouin d'Aumeries
Co-Programmation & Développement : Marc-Olivier Méhu
Soutien technique & logistique : Manuel Goepfert

Contact : metmap@orbifly.com




SOURCES & CREDITS :

   NOAA